createdAt,value
2022-09-20T00:01:32.300Z,96544.81
2022-09-20T00:04:01.502Z,96541.56
2022-09-20T00:06:31.114Z,96551.16
2022-09-20T00:08:59.454Z,96548.22
2022-09-20T00:11:29.334Z,96543.75
2022-09-20T00:13:57.851Z,96537.84
2022-09-20T00:16:26.970Z,96541.25
2022-09-20T00:18:56.494Z,96542.88
2022-09-20T00:21:27.734Z,96538.19
2022-09-20T00:23:55.018Z,96530.28
2022-09-20T00:26:22.195Z,96544.91
2022-09-20T00:28:48.702Z,96526.59
2022-09-20T00:31:15.396Z,96530.84
2022-09-20T00:34:01.535Z,96523.41
2022-09-20T00:36:28.342Z,96519.81
2022-09-20T00:38:59.342Z,96519.50
2022-09-20T00:41:27.170Z,96512.38
2022-09-20T00:43:54.527Z,96516.94
2022-09-20T00:46:43.450Z,96509.22
2022-09-20T00:49:12.468Z,96514.22
2022-09-20T00:51:42.014Z,96505.25
2022-09-20T00:54:11.600Z,96510.09
2022-09-20T00:56:41.395Z,96508.34
2022-09-20T00:59:27.491Z,96511.75
2022-09-20T01:02:02.761Z,96510.84
2022-09-20T01:04:30.587Z,96516.97
2022-09-20T01:07:01.976Z,96505.09
2022-09-20T01:09:28.554Z,96507.13
2022-09-20T01:11:58.006Z,96508.75
2022-09-20T01:14:26.845Z,96508.22
2022-09-20T01:16:56.324Z,96511.44
2022-09-20T01:19:38.983Z,96514.88
2022-09-20T01:22:17.247Z,96521.56
2022-09-20T01:25:00.550Z,96510.25
2022-09-20T01:27:40.982Z,96506.41
2022-09-20T01:30:12.819Z,96514.63
2022-09-20T01:32:51.870Z,96506.03
2022-09-20T01:35:20.459Z,96509.28
2022-09-20T01:38:06.581Z,96504.94
2022-09-20T01:40:45.974Z,96507.16
2022-09-20T01:43:25.559Z,96508.44
2022-09-20T01:45:53.481Z,96504.66
2022-09-20T01:48:37.674Z,96497.03
2022-09-20T01:51:42.210Z,96499.22
2022-09-20T01:54:45.422Z,96505.94
2022-09-20T01:57:45.446Z,96500.34
2022-09-20T02:00:27.217Z,96496.59
2022-09-20T02:02:56.799Z,96507.09
2022-09-20T02:05:29.081Z,96499.63
2022-09-20T02:08:26.639Z,96498.22
2022-09-20T02:11:12.788Z,96502.09
2022-09-20T02:13:39.369Z,96500.09
2022-09-20T02:16:37.479Z,96509.72
2022-09-20T02:19:17.308Z,96509.16
2022-09-20T02:21:50.160Z,96509.53
2022-09-20T02:24:30.295Z,96499.47
2022-09-20T02:27:05.711Z,96499.53
2022-09-20T02:29:54.171Z,96509.16
2022-09-20T02:32:45.431Z,96500.97
2022-09-20T02:35:36.625Z,96500.09
2022-09-20T02:38:31.396Z,96503.00
2022-09-20T02:41:19.915Z,96496.56
2022-09-20T02:44:05.556Z,96503.09
2022-09-20T02:46:53.258Z,96507.47
2022-09-20T02:49:30.835Z,96504.69
2022-09-20T02:52:03.811Z,96511.47
2022-09-20T02:54:59.027Z,96503.88
2022-09-20T02:57:33.666Z,96506.59
2022-09-20T03:00:07.294Z,96513.63
2022-09-20T03:02:46.506Z,96518.44
2022-09-20T03:05:24.271Z,96523.16
2022-09-20T03:08:25.886Z,96514.94
2022-09-20T03:11:17.810Z,96516.19
2022-09-20T03:14:05.697Z,96514.59
2022-09-20T03:16:39.531Z,96520.84
2022-09-20T03:19:18.824Z,96530.81
2022-09-20T03:21:54.743Z,96530.56
2022-09-20T03:24:44.204Z,96531.91
2022-09-20T03:27:30.842Z,96519.78
2022-09-20T03:30:24.641Z,96534.53
2022-09-20T03:33:15.044Z,96535.19
2022-09-20T03:36:19.594Z,96526.34
2022-09-20T03:39:21.771Z,96523.06
2022-09-20T03:42:00.301Z,96528.25
2022-09-20T03:44:42.992Z,96534.22
2022-09-20T03:47:33.351Z,96530.66
2022-09-20T03:50:33.482Z,96517.19
2022-09-20T03:53:35.995Z,96516.63
2022-09-20T03:56:36.487Z,96518.34
2022-09-20T03:59:21.899Z,96524.06
2022-09-20T04:02:27.432Z,96519.00
2022-09-20T04:04:59.176Z,96517.88
2022-09-20T04:07:54.588Z,96517.94
2022-09-20T04:11:06.296Z,96506.34
2022-09-20T04:13:42.882Z,96516.13
2022-09-20T04:16:22.886Z,96520.16
2022-09-20T04:18:58.383Z,96520.16
2022-09-20T04:21:38.686Z,96525.81
2022-09-20T04:24:34.371Z,96523.97
2022-09-20T04:27:13.429Z,96524.78
2022-09-20T04:30:02.071Z,96528.88
2022-09-20T04:33:04.916Z,96528.59
2022-09-20T04:36:24.166Z,96534.69
2022-09-20T04:39:07.171Z,96527.69
2022-09-20T04:41:57.802Z,96531.28
2022-09-20T04:44:58.513Z,96532.31
2022-09-20T04:47:45.430Z,96535.81
2022-09-20T04:50:14.507Z,96543.78
2022-09-20T04:52:59.872Z,96534.97
2022-09-20T04:55:45.018Z,96549.88
2022-09-20T04:58:22.157Z,96537.06
2022-09-20T05:01:17.057Z,96546.09
2022-09-20T05:04:37.360Z,96535.88
2022-09-20T05:07:34.223Z,96545.19
2022-09-20T05:10:33.765Z,96543.06
2022-09-20T05:13:28.039Z,96541.97
2022-09-20T05:16:21.522Z,96542.31
2022-09-20T05:19:23.243Z,96548.09
2022-09-20T05:22:00.110Z,96548.09
2022-09-20T05:25:13.751Z,96563.97
2022-09-20T05:28:02.127Z,96543.75
2022-09-20T05:30:48.263Z,96541.63
2022-09-20T05:33:25.134Z,96555.41
2022-09-20T05:36:02.159Z,96553.63
2022-09-20T05:38:53.153Z,96549.34
2022-09-20T05:41:44.788Z,96562.34
2022-09-20T05:44:44.247Z,96570.06
2022-09-20T05:47:29.327Z,96563.13
2022-09-20T05:49:58.954Z,96558.56
2022-09-20T05:52:59.208Z,96572.00
2022-09-20T05:56:18.338Z,96572.00
2022-09-20T05:58:53.543Z,96573.97
2022-09-20T06:01:32.910Z,96576.69
2022-09-20T06:04:15.060Z,96578.03
2022-09-20T06:07:06.339Z,96574.66
2022-09-20T06:10:13.755Z,96578.66
2022-09-20T06:12:50.713Z,96577.19
2022-09-20T06:15:28.483Z,96577.00
2022-09-20T06:18:04.104Z,96571.59
2022-09-20T06:20:53.110Z,96570.84
2022-09-20T06:23:21.267Z,96568.63
2022-09-20T06:26:02.232Z,96571.28
2022-09-20T06:28:33.976Z,96579.50
2022-09-20T06:31:00.425Z,96575.44
2022-09-20T06:33:29.288Z,96583.38
2022-09-20T06:36:28.571Z,96581.94
2022-09-20T06:39:23.350Z,96581.19
2022-09-20T06:41:49.724Z,96585.38
2022-09-20T06:44:16.039Z,96590.41
2022-09-20T06:46:42.862Z,96589.22
2022-09-20T06:49:09.465Z,96592.69
2022-09-20T06:51:38.116Z,96600.69
2022-09-20T06:54:07.084Z,96597.91
2022-09-20T06:56:36.624Z,96598.13
2022-09-20T06:59:11.906Z,96601.63
2022-09-20T07:01:39.066Z,96607.25
2022-09-20T07:04:10.041Z,96601.22
2022-09-20T07:06:36.578Z,96600.91
2022-09-20T07:09:04.118Z,96606.88
2022-09-20T07:11:34.008Z,96609.13
2022-09-20T07:14:00.582Z,96607.50
2022-09-20T07:16:27.600Z,96608.38
2022-09-20T07:18:54.014Z,96608.41
2022-09-20T07:21:21.595Z,96610.50
2022-09-20T07:23:51.921Z,96606.13
2022-09-20T07:26:20.086Z,96613.19
2022-09-20T07:28:46.775Z,96606.81
2022-09-20T07:31:13.607Z,96603.94
2022-09-20T07:33:40.024Z,96610.47
2022-09-20T07:36:06.662Z,96612.13
2022-09-20T07:38:33.692Z,96622.75
2022-09-20T07:41:02.189Z,96616.66
2022-09-20T07:43:30.144Z,96619.28
2022-09-20T07:45:59.082Z,96614.34
2022-09-20T07:48:30.772Z,96620.31
2022-09-20T07:51:04.757Z,96620.63
2022-09-20T07:53:34.819Z,96622.13
2022-09-20T07:56:07.288Z,96624.16
2022-09-20T07:58:36.220Z,96637.69
2022-09-20T08:01:06.179Z,96637.78
2022-09-20T08:03:34.512Z,96628.56
2022-09-20T08:06:02.720Z,96633.13
2022-09-20T08:08:32.554Z,96636.56
2022-09-20T08:11:20.090Z,96632.06
2022-09-20T08:16:47.308Z,96643.13
2022-09-20T08:19:20.699Z,96643.94
2022-09-20T08:21:47.887Z,96650.00
2022-09-20T08:24:16.234Z,96650.25
2022-09-20T08:26:44.375Z,96652.38
2022-09-20T08:29:11.499Z,96653.44
2022-09-20T08:31:42.045Z,96647.38
2022-09-20T08:34:10.598Z,96651.63
2022-09-20T08:36:41.117Z,96657.38
2022-09-20T08:42:25.495Z,96663.66
2022-09-20T08:44:58.364Z,96660.09
2022-09-20T08:47:29.768Z,96662.91
2022-09-20T08:49:58.180Z,96660.53
2022-09-20T08:52:35.883Z,96664.69
2022-09-20T08:55:07.504Z,96668.13
2022-09-20T08:57:35.617Z,96668.59
2022-09-20T09:00:04.918Z,96660.41
2022-09-20T09:02:32.282Z,96657.13
2022-09-20T09:04:58.699Z,96650.19
2022-09-20T09:07:28.279Z,96649.81
2022-09-20T09:09:56.587Z,96648.03
2022-09-20T09:12:25.803Z,96649.41
2022-09-20T09:14:57.815Z,96650.78
2022-09-20T09:17:27.927Z,96649.63
2022-09-20T09:19:59.319Z,96648.25
2022-09-20T09:22:44.126Z,96652.81
2022-09-20T09:25:25.412Z,96651.97
2022-09-20T09:27:57.565Z,96649.31
2022-09-20T09:30:26.292Z,96650.34
2022-09-20T09:33:13.055Z,96643.69
2022-09-20T09:35:39.972Z,96641.41
2022-09-20T09:38:21.409Z,96636.03
2022-09-20T09:41:02.531Z,96631.81
2022-09-20T09:43:35.466Z,96635.56
2022-09-20T09:46:23.904Z,96628.06
2022-09-20T09:49:09.752Z,96629.84
2022-09-20T09:51:39.025Z,96634.38
2022-09-20T09:54:08.190Z,96630.19
2022-09-20T09:57:02.475Z,96624.13
2022-09-20T09:59:34.494Z,96634.50
2022-09-20T10:02:18.598Z,96631.72
2022-09-20T10:05:21.985Z,96627.41
2022-09-20T10:08:18.329Z,96632.41
2022-09-20T10:10:47.422Z,96631.59
2022-09-20T10:13:13.671Z,96630.44
2022-09-20T10:16:04.494Z,96629.72
2022-09-20T10:18:44.586Z,96632.28
2022-09-20T10:21:34.032Z,96633.94
2022-09-20T10:24:17.570Z,96632.56
2022-09-20T10:27:07.928Z,96616.59
2022-09-20T10:29:53.375Z,96634.38
2022-09-20T10:32:50.225Z,96625.50
2022-09-20T10:35:24.966Z,96628.38
2022-09-20T10:38:10.583Z,96629.84
2022-09-20T10:41:00.133Z,96610.97
2022-09-20T10:44:04.885Z,96612.41
2022-09-20T10:46:53.508Z,96619.88
2022-09-20T10:49:24.961Z,96614.66
2022-09-20T10:52:08.661Z,96618.81
2022-09-20T10:54:40.595Z,96613.56
2022-09-20T10:57:27.043Z,96615.81
2022-09-20T11:00:46.472Z,96623.44
2022-09-20T11:03:21.810Z,96638.00
2022-09-20T11:06:15.051Z,96631.66
2022-09-20T11:08:44.209Z,96626.81
2022-09-20T11:11:18.725Z,96625.72
2022-09-20T11:14:04.185Z,96637.50
2022-09-20T11:16:50.837Z,96624.81
2022-09-20T11:19:47.879Z,96622.31
2022-09-20T11:22:21.551Z,96629.88
2022-09-20T11:25:24.991Z,96631.88
2022-09-20T11:28:01.572Z,96619.69
2022-09-20T11:30:30.203Z,96622.28
2022-09-20T11:33:18.118Z,96618.47
2022-09-20T11:35:58.372Z,96620.34
2022-09-20T11:38:53.369Z,96613.56
2022-09-20T11:41:30.695Z,96622.31
2022-09-20T11:44:10.844Z,96626.13
2022-09-20T11:46:45.315Z,96635.03
2022-09-20T11:49:15.590Z,96630.38
2022-09-20T11:52:29.099Z,96631.25
2022-09-20T11:55:04.143Z,96615.28
2022-09-20T11:57:31.650Z,96622.03
2022-09-20T12:00:03.490Z,96612.53
2022-09-20T12:02:34.914Z,96611.28
2022-09-20T12:05:03.504Z,96617.66
2022-09-20T12:07:38.363Z,96608.94
2022-09-20T12:10:23.176Z,96615.31
2022-09-20T12:12:56.810Z,96615.75
2022-09-20T12:15:26.643Z,96621.63
2022-09-20T12:17:52.894Z,96612.22
2022-09-20T12:20:45.234Z,96617.97
2022-09-20T12:23:42.823Z,96616.25
2022-09-20T12:26:21.927Z,96625.25
2022-09-20T12:29:23.574Z,96611.53
2022-09-20T12:31:52.056Z,96610.13
2022-09-20T12:34:18.342Z,96610.47
2022-09-20T12:36:52.084Z,96614.72
2022-09-20T12:39:39.595Z,96606.56
2022-09-20T12:42:11.657Z,96621.41
2022-09-20T12:44:41.604Z,96614.91
2022-09-20T12:47:19.858Z,96613.00
2022-09-20T12:50:05.743Z,96615.16
2022-09-20T12:52:50.542Z,96606.50
2022-09-20T12:55:46.026Z,96597.25
2022-09-20T12:58:15.322Z,96595.84
2022-09-20T13:00:47.310Z,96598.34
2022-09-20T13:03:35.095Z,96614.25
2022-09-20T13:06:07.243Z,96603.47
2022-09-20T13:08:58.663Z,96601.44
2022-09-20T13:11:48.723Z,96595.31
2022-09-20T13:14:22.369Z,96594.25
2022-09-20T13:17:02.925Z,96592.78
2022-09-20T13:19:38.935Z,96597.38
2022-09-20T13:22:37.728Z,96593.53
2022-09-20T13:25:07.467Z,96592.44
2022-09-20T13:28:10.106Z,96589.78
2022-09-20T13:30:36.971Z,96595.41
2022-09-20T13:33:24.110Z,96594.00
2022-09-20T13:35:59.015Z,96595.25
2022-09-20T13:38:31.620Z,96581.91
2022-09-20T13:41:09.587Z,96576.09
2022-09-20T13:43:39.783Z,96576.09
2022-09-20T13:46:30.735Z,96582.47
2022-09-20T13:49:13.654Z,96600.13
2022-09-20T13:51:40.443Z,96587.00
2022-09-20T13:54:27.531Z,96589.34
2022-09-20T13:56:57.586Z,96594.38
2022-09-20T13:59:28.912Z,96592.34
2022-09-20T14:01:57.856Z,96596.09
2022-09-20T14:04:26.287Z,96591.91
2022-09-20T14:06:56.216Z,96594.44
2022-09-20T14:09:36.531Z,96590.03
2022-09-20T14:12:05.272Z,96599.09
2022-09-20T14:14:34.299Z,96604.59
2022-09-20T14:17:05.914Z,96601.91
2022-09-20T14:19:37.185Z,96603.31
2022-09-20T14:22:05.000Z,96598.63
2022-09-20T14:24:37.525Z,96600.75
2022-09-20T14:27:21.782Z,96600.34
2022-09-20T14:29:51.755Z,96605.16
2022-09-20T14:32:18.001Z,96604.13
2022-09-20T14:35:04.642Z,96597.78
2022-09-20T14:37:43.811Z,96598.31
2022-09-20T14:40:22.140Z,96600.53
2022-09-20T14:42:53.549Z,96596.41
2022-09-20T14:45:24.801Z,96602.75
2022-09-20T14:48:11.543Z,96610.56
2022-09-20T14:50:46.585Z,96609.19
2022-09-20T14:53:19.135Z,96611.41
2022-09-20T14:56:04.242Z,96606.38
2022-09-20T14:58:31.283Z,96601.25
2022-09-20T15:01:02.607Z,96604.19
2022-09-20T15:03:41.468Z,96599.81
2022-09-20T15:06:12.706Z,96601.44
2022-09-20T15:08:44.008Z,96603.50
2022-09-20T15:11:15.125Z,96599.94
2022-09-20T15:13:41.763Z,96593.50
2022-09-20T15:16:08.465Z,96597.91
2022-09-20T15:18:40.218Z,96597.34
2022-09-20T15:21:06.584Z,96594.88
2022-09-20T15:23:33.476Z,96603.47
2022-09-20T15:26:00.903Z,96606.28
2022-09-20T15:28:27.726Z,96596.97
2022-09-20T15:30:54.636Z,96594.41
2022-09-20T15:33:22.090Z,96597.94
2022-09-20T15:35:48.948Z,96598.16
2022-09-20T15:38:18.206Z,96596.41
2022-09-20T15:40:47.799Z,96599.81
2022-09-20T15:43:22.276Z,96593.31
2022-09-20T15:45:58.183Z,96601.06
2022-09-20T15:48:26.450Z,96601.53
2022-09-20T15:51:06.056Z,96597.81
2022-09-20T15:53:35.204Z,96596.28
2022-09-20T15:56:03.962Z,96604.09
2022-09-20T15:58:35.969Z,96607.00
2022-09-20T16:01:08.323Z,96605.19
2022-09-20T16:03:36.506Z,96608.38
2022-09-20T16:06:06.219Z,96602.69
2022-09-20T16:08:37.743Z,96612.19
2022-09-20T16:11:05.882Z,96612.41
2022-09-20T16:13:32.368Z,96616.69
2022-09-20T16:16:01.270Z,96613.63
2022-09-20T16:18:47.359Z,96615.03
2022-09-20T16:21:17.587Z,96617.94
2022-09-20T16:23:52.543Z,96616.19
2022-09-20T16:26:25.086Z,96616.97
2022-09-20T16:28:52.918Z,96617.66
2022-09-20T16:31:30.845Z,96616.34
2022-09-20T16:33:57.408Z,96621.94
2022-09-20T16:36:27.452Z,96618.00
2022-09-20T16:38:55.592Z,96625.19
2022-09-20T16:41:23.320Z,96634.03
2022-09-20T16:43:52.519Z,96633.81
2022-09-20T16:46:20.882Z,96634.22
2022-09-20T16:48:49.719Z,96633.06
2022-09-20T16:51:16.399Z,96637.72
2022-09-20T16:53:43.395Z,96633.66
2022-09-20T16:56:19.251Z,96636.38
2022-09-20T16:58:45.944Z,96633.72
2022-09-20T17:01:12.652Z,96638.09
2022-09-20T17:03:41.605Z,96647.72
2022-09-20T17:06:08.715Z,96639.94
2022-09-20T17:08:40.082Z,96649.38
2022-09-20T17:11:08.212Z,96648.16
2022-09-20T17:13:39.643Z,96653.84
2022-09-20T17:16:11.843Z,96653.88
2022-09-20T17:18:44.733Z,96662.84
2022-09-20T17:21:16.122Z,96665.88
2022-09-20T17:23:50.180Z,96677.22
2022-09-20T17:26:31.391Z,96671.25
2022-09-20T17:28:58.760Z,96670.00
2022-09-20T17:31:30.090Z,96672.56
2022-09-20T17:34:00.500Z,96676.81
2022-09-20T17:36:29.812Z,96684.97
2022-09-20T17:39:01.717Z,96681.94
2022-09-20T17:41:31.107Z,96687.88
2022-09-20T17:43:59.727Z,96691.97
2022-09-20T17:46:30.285Z,96693.34
2022-09-20T17:49:01.064Z,96696.56
2022-09-20T17:51:29.645Z,96702.00
2022-09-20T17:53:55.978Z,96702.31
2022-09-20T17:56:30.119Z,96694.03
2022-09-20T17:59:01.398Z,96701.72
2022-09-20T18:01:30.285Z,96704.28
2022-09-20T18:03:59.031Z,96711.75
2022-09-20T18:06:32.308Z,96704.69
2022-09-20T18:09:01.271Z,96714.00
2022-09-20T18:11:31.509Z,96713.59
2022-09-20T18:13:59.091Z,96725.94
2022-09-20T18:16:25.602Z,96725.31
2022-09-20T18:18:52.181Z,96731.44
2022-09-20T18:21:21.291Z,96736.47
2022-09-20T18:23:48.836Z,96734.56
2022-09-20T18:26:24.832Z,96744.06
2022-09-20T18:29:00.129Z,96747.19
2022-09-20T18:31:32.778Z,96744.59
2022-09-20T18:34:00.785Z,96747.53
2022-09-20T18:36:31.891Z,96748.03
2022-09-20T18:38:59.878Z,96752.00
2022-09-20T18:41:28.955Z,96760.50
2022-09-20T18:43:56.059Z,96763.72
2022-09-20T18:46:25.350Z,96762.19
2022-09-20T18:48:52.900Z,96762.19
2022-09-20T18:51:20.351Z,96761.41
2022-09-20T18:53:48.248Z,96767.06
2022-09-20T18:56:24.810Z,96765.78
2022-09-20T18:58:54.305Z,96776.09
2022-09-20T19:01:37.562Z,96774.94
2022-09-20T19:04:06.744Z,96770.38
2022-09-20T19:07:14.678Z,96777.22
2022-09-20T19:09:49.683Z,96785.00
2022-09-20T19:12:29.115Z,96791.50
2022-09-20T19:15:14.588Z,96791.50
2022-09-20T19:17:50.716Z,96798.78
2022-09-20T19:20:29.930Z,96793.94
2022-09-20T19:23:27.135Z,96796.88
2022-09-20T19:26:07.520Z,96799.44
2022-09-20T19:28:34.214Z,96804.72
2022-09-20T19:31:00.907Z,96798.88
2022-09-20T19:33:28.040Z,96815.97
2022-09-20T19:35:55.303Z,96816.59
2022-09-20T19:38:45.621Z,96820.41
2022-09-20T19:41:39.948Z,96816.03
2022-09-20T19:44:27.828Z,96816.03
2022-09-20T19:47:13.458Z,96824.53
2022-09-20T19:49:54.147Z,96822.69
2022-09-20T19:52:22.002Z,96830.09
2022-09-20T19:54:52.338Z,96838.50
2022-09-20T19:57:40.149Z,96831.63
2022-09-20T20:00:09.562Z,96836.44
2022-09-20T20:02:36.289Z,96848.31
2022-09-20T20:05:04.157Z,96847.59
2022-09-20T20:07:39.722Z,96847.88
2022-09-20T20:10:20.731Z,96851.84
2022-09-20T20:12:59.887Z,96846.97
2022-09-20T20:15:52.523Z,96849.09
2022-09-20T20:18:37.869Z,96860.94
2022-09-20T20:21:08.289Z,96862.41
2022-09-20T20:23:47.771Z,96858.25
2022-09-20T20:26:21.324Z,96854.78
2022-09-20T20:28:47.837Z,96847.44
2022-09-20T20:31:14.736Z,96852.44
2022-09-20T20:33:41.619Z,96853.72
2022-09-20T20:36:08.885Z,96849.31
2022-09-20T20:38:39.221Z,96851.91
2022-09-20T20:41:15.049Z,96860.19
2022-09-20T20:43:43.060Z,96860.47
2022-09-20T20:46:13.959Z,96863.28
2022-09-20T20:48:40.942Z,96855.66
2022-09-20T20:51:13.028Z,96870.28
2022-09-20T20:53:48.756Z,96864.59
2022-09-20T20:56:18.008Z,96867.50
2022-09-20T20:58:46.067Z,96871.38
2022-09-20T21:01:18.315Z,96865.16
2022-09-20T21:03:49.663Z,96868.97
2022-09-20T21:06:17.024Z,96873.59
2022-09-20T21:08:49.002Z,96876.38
2022-09-20T21:11:18.733Z,96879.94
2022-09-20T21:13:48.630Z,96876.47
2022-09-20T21:16:17.729Z,96877.50
2022-09-20T21:18:47.052Z,96874.31
2022-09-20T21:21:23.094Z,96873.31
2022-09-20T21:23:57.513Z,96880.66
2022-09-20T21:26:26.032Z,96879.53
2022-09-20T21:28:59.011Z,96878.44
2022-09-20T21:31:31.466Z,96883.13
2022-09-20T21:33:58.519Z,96875.38
2022-09-20T21:36:27.380Z,96871.44
2022-09-20T21:38:54.783Z,96866.53
2022-09-20T21:41:31.925Z,96865.69
2022-09-20T21:44:01.285Z,96868.00
2022-09-20T21:46:29.911Z,96864.38
2022-09-20T21:49:01.309Z,96862.13
2022-09-20T21:51:31.046Z,96855.63
2022-09-20T21:53:59.354Z,96871.34
2022-09-20T21:56:28.023Z,96866.72
2022-09-20T21:58:54.965Z,96868.22
2022-09-20T22:01:23.786Z,96873.94
2022-09-20T22:03:56.887Z,96865.50
2022-09-20T22:06:26.439Z,96874.22
2022-09-20T22:08:58.702Z,96862.31
2022-09-20T22:11:27.613Z,96860.41
2022-09-20T22:13:55.719Z,96863.94
2022-09-20T22:16:31.240Z,96868.97
2022-09-20T22:19:01.440Z,96867.38
2022-09-20T22:21:40.702Z,96864.09
2022-09-20T22:24:10.383Z,96864.75
2022-09-20T22:26:39.327Z,96863.97
2022-09-20T22:29:09.725Z,96854.75
2022-09-20T22:31:44.885Z,96861.19
2022-09-20T22:34:17.351Z,96857.28
2022-09-20T22:36:44.774Z,96853.00
2022-09-20T22:39:12.697Z,96851.38
2022-09-20T22:41:41.592Z,96854.19
2022-09-20T22:44:09.258Z,96851.09
2022-09-20T22:46:38.615Z,96849.13
2022-09-20T22:49:06.273Z,96842.22
2022-09-20T22:51:33.813Z,96838.25
2022-09-20T22:54:04.174Z,96843.88
2022-09-20T22:56:31.156Z,96843.34
2022-09-20T22:59:00.201Z,96839.41
2022-09-20T23:01:32.290Z,96846.66
2022-09-20T23:04:03.873Z,96846.00
2022-09-20T23:06:37.613Z,96848.31
2022-09-20T23:09:05.776Z,96858.69
2022-09-20T23:11:32.117Z,96848.31
2022-09-20T23:14:01.368Z,96851.13
2022-09-20T23:16:29.956Z,96851.13
2022-09-20T23:18:58.625Z,96846.34
2022-09-20T23:21:26.042Z,96849.66
2022-09-20T23:23:54.447Z,96844.69
2022-09-20T23:26:21.403Z,96848.50
2022-09-20T23:28:57.499Z,96851.78
2022-09-20T23:31:25.119Z,96850.78
2022-09-20T23:33:54.095Z,96857.38
2022-09-20T23:36:21.698Z,96855.06
2022-09-20T23:38:48.807Z,96853.91
2022-09-20T23:41:17.703Z,96860.97
2022-09-20T23:43:44.897Z,96852.59
2022-09-20T23:46:12.770Z,96859.00
2022-09-20T23:48:41.598Z,96853.25
2022-09-20T23:51:10.531Z,96850.94
2022-09-20T23:53:37.503Z,96852.41
2022-09-20T23:56:06.394Z,96858.81
2022-09-20T23:58:36.227Z,96854.72
